CheckWX is a tool to help pilots better visualize weather data.  It is not intended as a substitute for an official pre-flight weather briefing.

04:55:49 UTC

EPWR TAF
Copernicus Wrocław Airport
Wrocław, Poland
TAF EPWR 230230Z 2303/2403 30016KT 9999 OVC005 TEMPO 2303/2308 3000 DZ BR OVC002 BECMG 2308/2311 BKN014 TEMPO 2308/2315 SHRA BKN009 BKN014CB BECMG 2316/2318 29006KT SCT035

May-23@
03:00 UTC

May-23 @ 03:00 UTC

May-23@
08:00 UTC

May-23 @ 08:00 UTC

TAF EPWR 230230Z 2303/2403 30016KT 9999 OVC005
Wind
  • 300° at 16 KTS
Cloud Levels
  • Overcast at 500' AGL

May-23@
03:00 UTC

May-23 @ 03:00 UTC

May-23@
08:00 UTC

May-23 @ 08:00 UTC

TEMPO 2303/2308 3000 DZ BR OVC002

Temporary

Temporary Changes expected for less than half the time period

Conditions
Drizzle, Mist
Cloud Levels
  • Overcast at 200' AGL

May-23@
08:00 UTC

May-23 @ 08:00 UTC

May-23@
15:00 UTC

May-23 @ 15:00 UTC

TEMPO 2308/2315 SHRA BKN009 BKN014CB

Temporary

Temporary Changes expected for less than half the time period

Conditions
Rain
Cloud Levels
  • Broken at 900' AGL
  • Broken at 1,400' AGL

May-23@
08:00 UTC

May-23 @ 08:00 UTC

May-23@
16:00 UTC

May-23 @ 16:00 UTC

BECMG 2308/2311 BKN014

Becoming

Becoming Conditions expected by Thu, May 23, 2019 @ 11:00 UTC

Wind
  • 300° at 16 KTS
Cloud Levels
  • Broken at 1,400' AGL

May-23@
16:00 UTC

May-23 @ 16:00 UTC

May-24@
03:00 UTC

May-24 @ 03:00 UTC

BECMG 2316/2318 29006KT SCT035

Becoming

Becoming Conditions expected by Thu, May 23, 2019 @ 18:00 UTC

Wind
  • 290° at 6 KTS
Cloud Levels
  • Scattered at 3,500' AGL